This is the latest recevied weather packets stored in our database for station/object K7KAR-2. If no packets are shown the sender has not sent any weather packets the latest 10 day(s).
| Time | Temp. | Humidity | Pressure | Rain* | Wind** | Luminosity | Snow |
|---|---|---|---|---|---|---|---|
| 1777620105 | 3.33° C | 40% | 1019.2 hPa | 0 mm | - | 0 W/m² | - |
| 1777619801 | 2.78° C | 40% | 1019.2 hPa | 0 mm | - | 0 W/m² | - |
| 1777619497 | 3.33° C | 40% | 1019.2 hPa | 0 mm | - | 0 W/m² | - |
| 1777619192 | 3.89° C | 39% | 1019.2 hPa | 0 mm | - | 0 W/m² | - |
| 1777618891 | 3.89° C | 37% | 1019.2 hPa | 0 mm | - | 0 W/m² | - |
| 1777618586 | 3.89° C | 38% | 1019.1 hPa | 0 mm | - | 0 W/m² | - |
| 1777618282 | 3.89° C | 36% | 1019.4 hPa | 0 mm | - | 0 W/m² | - |
| 1777617980 | 4.44° C | 33% | 1019.4 hPa | 0 mm | - | 0 W/m² | - |
| 1777617675 | 4.44° C | 36% | 1019.2 hPa | 0 mm | - | 0 W/m² | - |
| 1777617371 | 4.44° C | 35% | 1019.1 hPa | 0 mm | - | 0 W/m² | - |
| 1777617069 | 4.44° C | 35% | 1019.1 hPa | 0 mm | - | 0 W/m² | - |
| 1777616769 | 4.44° C | 34% | 1019.1 hPa | 0 mm | - | 0 W/m² | - |
| 1777616464 | 4.44° C | 34% | 1019.1 hPa | 0 mm | - | 0 W/m² | - |
| 1777616160 | 5° C | 33% | 1019 hPa | 0 mm | - | 0 W/m² | - |
| 1777615858 | 5° C | 32% | 1019.1 hPa | 0 mm | - | 0 W/m² | - |
| 1777615549 | 4.44° C | 34% | 1019 hPa | 0 mm | - | 0 W/m² | - |
| 1777615245 | 5° C | 36% | 1019.1 hPa | 0 mm | - | 0 W/m² | - |
| 1777614944 | 5.56° C | 31% | 1019.2 hPa | 0 mm | - | 0 W/m² | - |
| 1777614641 | 5.56° C | 32% | 1019 hPa | 0 mm | - | 0 W/m² | - |
| 1777614337 | 5.56° C | 34% | 1019.1 hPa | 0 mm | - | 0 W/m² | - |
| 1777614032 | 5° C | 35% | 1019 hPa | 0 mm | - | 0 W/m² | - |
| 1777613728 | 6.11° C | 30% | 1019.2 hPa | 0 mm | - | 0 W/m² | - |
| 1777613426 | 6.11° C | 27% | 1019.1 hPa | 0 mm | - | 0 W/m² | - |
| 1777613122 | 6.11° C | 27% | 1019.2 hPa | 0 mm | - | 0 W/m² | - |
| 1777612818 | 6.11° C | 27% | 1018.9 hPa | 0 mm | - | 0 W/m² | - |
* Rain latest hour (hover to see other rain measurements)
** Current wind speed in m/s (hover to see current wind gust speed)